sensor_id;sensor_type;location;lat;lon;timestamp;P1;durP1;ratioP1;P2;durP2;ratioP2
48993;SDS011;34804;49.214;12.276;2023-09-08T00:00:17;8.27;;;4.45;;
48993;SDS011;34804;49.214;12.276;2023-09-08T00:02:44;6.85;;;4.78;;
48993;SDS011;34804;49.214;12.276;2023-09-08T00:05:10;8.25;;;5.10;;
48993;SDS011;34804;49.214;12.276;2023-09-08T00:07:37;7.35;;;4.85;;
48993;SDS011;34804;49.214;12.276;2023-09-08T00:10:04;7.50;;;4.80;;
48993;SDS011;34804;49.214;12.276;2023-09-08T00:12:31;7.53;;;4.53;;
48993;SDS011;34804;49.214;12.276;2023-09-08T00:14:58;8.68;;;4.85;;
48993;SDS011;34804;49.214;12.276;2023-09-08T00:17:25;7.40;;;4.95;;
48993;SDS011;34804;49.214;12.276;2023-09-08T00:19:52;9.52;;;5.63;;
48993;SDS011;34804;49.214;12.276;2023-09-08T00:22:19;7.75;;;4.97;;
48993;SDS011;34804;49.214;12.276;2023-09-08T00:24:45;10.48;;;5.75;;
48993;SDS011;34804;49.214;12.276;2023-09-08T00:27:12;7.07;;;4.32;;
48993;SDS011;34804;49.214;12.276;2023-09-08T00:29:39;8.05;;;4.40;;
48993;SDS011;34804;49.214;12.276;2023-09-08T00:32:06;8.50;;;4.95;;
48993;SDS011;34804;49.214;12.276;2023-09-08T00:34:33;6.63;;;4.85;;
48993;SDS011;34804;49.214;12.276;2023-09-08T00:37:00;12.07;;;4.70;;
48993;SDS011;34804;49.214;12.276;2023-09-08T00:39:37;8.95;;;4.65;;
48993;SDS011;34804;49.214;12.276;2023-09-08T00:42:04;7.63;;;5.03;;
48993;SDS011;34804;49.214;12.276;2023-09-08T00:44:33;7.45;;;5.35;;
48993;SDS011;34804;49.214;12.276;2023-09-08T00:47:00;8.43;;;5.43;;
48993;SDS011;34804;49.214;12.276;2023-09-08T00:49:27;7.85;;;4.93;;
48993;SDS011;34804;49.214;12.276;2023-09-08T00:51:55;7.45;;;5.13;;
48993;SDS011;34804;49.214;12.276;2023-09-08T00:54:22;6.57;;;4.53;;
48993;SDS011;34804;49.214;12.276;2023-09-08T00:56:49;9.68;;;5.55;;
48993;SDS011;34804;49.214;12.276;2023-09-08T00:59:21;10.37;;;5.67;;
48993;SDS011;34804;49.214;12.276;2023-09-08T01:01:48;8.95;;;5.15;;
48993;SDS011;34804;49.214;12.276;2023-09-08T01:04:15;10.15;;;5.15;;
48993;SDS011;34804;49.214;12.276;2023-09-08T01:06:43;9.63;;;5.43;;
48993;SDS011;34804;49.214;12.276;2023-09-08T01:09:11;10.00;;;5.20;;
48993;SDS011;34804;49.214;12.276;2023-09-08T01:11:39;8.27;;;5.28;;
48993;SDS011;34804;49.214;12.276;2023-09-08T01:14:08;10.48;;;5.43;;
48993;SDS011;34804;49.214;12.276;2023-09-08T01:16:37;10.18;;;5.35;;
48993;SDS011;34804;49.214;12.276;2023-09-08T01:19:07;8.07;;;4.75;;
48993;SDS011;34804;49.214;12.276;2023-09-08T01:26:56;9.97;;;5.00;;
48993;SDS011;34804;49.214;12.276;2023-09-08T01:29:23;7.10;;;4.55;;
48993;SDS011;34804;49.214;12.276;2023-09-08T01:31:52;10.15;;;5.32;;
48993;SDS011;34804;49.214;12.276;2023-09-08T01:34:19;8.05;;;4.97;;
48993;SDS011;34804;49.214;12.276;2023-09-08T01:36:46;9.70;;;5.28;;
48993;SDS011;34804;49.214;12.276;2023-09-08T01:39:14;8.68;;;4.88;;
48993;SDS011;34804;49.214;12.276;2023-09-08T01:41:40;8.23;;;4.95;;
48993;SDS011;34804;49.214;12.276;2023-09-08T01:44:07;9.05;;;4.35;;
48993;SDS011;34804;49.214;12.276;2023-09-08T01:46:36;6.88;;;4.35;;
48993;SDS011;34804;49.214;12.276;2023-09-08T01:49:05;9.90;;;5.25;;
48993;SDS011;34804;49.214;12.276;2023-09-08T01:51:31;7.40;;;4.55;;
48993;SDS011;34804;49.214;12.276;2023-09-08T01:53:58;7.97;;;5.15;;
48993;SDS011;34804;49.214;12.276;2023-09-08T01:56:25;9.80;;;5.15;;
48993;SDS011;34804;49.214;12.276;2023-09-08T01:58:52;8.40;;;5.13;;
48993;SDS011;34804;49.214;12.276;2023-09-08T02:01:19;7.72;;;5.00;;
48993;SDS011;34804;49.214;12.276;2023-09-08T02:03:46;8.95;;;5.03;;
48993;SDS011;34804;49.214;12.276;2023-09-08T02:06:13;7.32;;;4.38;;
48993;SDS011;34804;49.214;12.276;2023-09-08T02:08:39;8.13;;;5.13;;
48993;SDS011;34804;49.214;12.276;2023-09-08T02:11:06;8.13;;;4.95;;
48993;SDS011;34804;49.214;12.276;2023-09-08T02:13:33;8.65;;;4.55;;
48993;SDS011;34804;49.214;12.276;2023-09-08T02:16:00;8.80;;;4.18;;
48993;SDS011;34804;49.214;12.276;2023-09-08T02:18:27;7.35;;;4.65;;
48993;SDS011;34804;49.214;12.276;2023-09-08T02:20:54;8.20;;;5.15;;
48993;SDS011;34804;49.214;12.276;2023-09-08T02:23:21;8.50;;;5.28;;
48993;SDS011;34804;49.214;12.276;2023-09-08T02:25:48;7.63;;;4.97;;
48993;SDS011;34804;49.214;12.276;2023-09-08T02:28:15;8.65;;;5.15;;
48993;SDS011;34804;49.214;12.276;2023-09-08T02:30:42;9.30;;;4.85;;
48993;SDS011;34804;49.214;12.276;2023-09-08T02:33:09;8.32;;;5.10;;
48993;SDS011;34804;49.214;12.276;2023-09-08T02:35:37;8.73;;;4.47;;
48993;SDS011;34804;49.214;12.276;2023-09-08T02:38:06;8.90;;;4.82;;
48993;SDS011;34804;49.214;12.276;2023-09-08T02:40:33;8.48;;;5.53;;
48993;SDS011;34804;49.214;12.276;2023-09-08T02:43:01;9.40;;;5.05;;
48993;SDS011;34804;49.214;12.276;2023-09-08T02:45:29;9.13;;;5.55;;
48993;SDS011;34804;49.214;12.276;2023-09-08T02:47:58;9.23;;;4.75;;
48993;SDS011;34804;49.214;12.276;2023-09-08T02:50:25;9.38;;;5.00;;
48993;SDS011;34804;49.214;12.276;2023-09-08T02:52:52;7.90;;;4.93;;
48993;SDS011;34804;49.214;12.276;2023-09-08T02:55:19;11.15;;;4.75;;
48993;SDS011;34804;49.214;12.276;2023-09-08T02:57:46;12.75;;;5.07;;
48993;SDS011;34804;49.214;12.276;2023-09-08T03:00:13;7.93;;;5.18;;
48993;SDS011;34804;49.214;12.276;2023-09-08T03:02:40;10.23;;;5.35;;
48993;SDS011;34804;49.214;12.276;2023-09-08T03:05:07;11.73;;;5.05;;
48993;SDS011;34804;49.214;12.276;2023-09-08T03:07:34;12.02;;;5.13;;
48993;SDS011;34804;49.214;12.276;2023-09-08T03:10:03;9.10;;;5.15;;
48993;SDS011;34804;49.214;12.276;2023-09-08T03:12:31;11.73;;;4.72;;
48993;SDS011;34804;49.214;12.276;2023-09-08T03:14:58;10.35;;;5.00;;
48993;SDS011;34804;49.214;12.276;2023-09-08T03:17:27;8.32;;;5.43;;
48993;SDS011;34804;49.214;12.276;2023-09-08T03:19:54;9.60;;;4.70;;
48993;SDS011;34804;49.214;12.276;2023-09-08T03:22:22;6.68;;;4.60;;
48993;SDS011;34804;49.214;12.276;2023-09-08T03:24:51;7.88;;;4.50;;
48993;SDS011;34804;49.214;12.276;2023-09-08T03:27:18;8.82;;;5.18;;
48993;SDS011;34804;49.214;12.276;2023-09-08T03:29:45;8.75;;;4.95;;
48993;SDS011;34804;49.214;12.276;2023-09-08T03:32:12;8.70;;;4.80;;
48993;SDS011;34804;49.214;12.276;2023-09-08T03:34:39;13.45;;;5.20;;
48993;SDS011;34804;49.214;12.276;2023-09-08T03:37:06;9.80;;;5.07;;
48993;SDS011;34804;49.214;12.276;2023-09-08T03:39:33;8.40;;;5.03;;
48993;SDS011;34804;49.214;12.276;2023-09-08T03:42:00;13.00;;;5.57;;
48993;SDS011;34804;49.214;12.276;2023-09-08T03:44:28;12.25;;;5.15;;
48993;SDS011;34804;49.214;12.276;2023-09-08T03:46:54;9.23;;;4.45;;
48993;SDS011;34804;49.214;12.276;2023-09-08T03:49:21;8.82;;;4.90;;
48993;SDS011;34804;49.214;12.276;2023-09-08T03:51:48;8.73;;;4.82;;
48993;SDS011;34804;49.214;12.276;2023-09-08T03:54:15;10.98;;;4.95;;
48993;SDS011;34804;49.214;12.276;2023-09-08T03:56:42;9.40;;;5.57;;
48993;SDS011;34804;49.214;12.276;2023-09-08T03:59:08;14.00;;;4.82;;
48993;SDS011;34804;49.214;12.276;2023-09-08T04:01:35;10.00;;;4.57;;
48993;SDS011;34804;49.214;12.276;2023-09-08T04:04:02;7.70;;;4.38;;
48993;SDS011;34804;49.214;12.276;2023-09-08T04:06:29;8.18;;;4.93;;
48993;SDS011;34804;49.214;12.276;2023-09-08T04:08:56;10.25;;;5.68;;
48993;SDS011;34804;49.214;12.276;2023-09-08T04:11:23;8.55;;;5.60;;
48993;SDS011;34804;49.214;12.276;2023-09-08T04:13:50;10.93;;;5.53;;
48993;SDS011;34804;49.214;12.276;2023-09-08T04:16:16;8.68;;;6.03;;
48993;SDS011;34804;49.214;12.276;2023-09-08T04:18:43;10.85;;;5.13;;
48993;SDS011;34804;49.214;12.276;2023-09-08T04:21:11;9.18;;;5.40;;
48993;SDS011;34804;49.214;12.276;2023-09-08T04:23:38;9.65;;;5.78;;
48993;SDS011;34804;49.214;12.276;2023-09-08T04:26:05;10.30;;;6.25;;
48993;SDS011;34804;49.214;12.276;2023-09-08T04:28:32;9.52;;;6.05;;
48993;SDS011;34804;49.214;12.276;2023-09-08T04:30:59;13.23;;;6.60;;
48993;SDS011;34804;49.214;12.276;2023-09-08T04:33:26;10.98;;;5.80;;
48993;SDS011;34804;49.214;12.276;2023-09-08T04:35:52;11.32;;;5.70;;
48993;SDS011;34804;49.214;12.276;2023-09-08T04:38:19;10.35;;;5.95;;
48993;SDS011;34804;49.214;12.276;2023-09-08T04:40:46;9.50;;;6.00;;
48993;SDS011;34804;49.214;12.276;2023-09-08T04:43:13;10.55;;;5.93;;
48993;SDS011;34804;49.214;12.276;2023-09-08T04:45:40;13.52;;;6.13;;
48993;SDS011;34804;49.214;12.276;2023-09-08T04:48:07;9.77;;;5.80;;
48993;SDS011;34804;49.214;12.276;2023-09-08T04:50:34;10.98;;;5.85;;
48993;SDS011;34804;49.214;12.276;2023-09-08T04:53:01;12.77;;;5.90;;
48993;SDS011;34804;49.214;12.276;2023-09-08T04:55:28;14.45;;;6.30;;
48993;SDS011;34804;49.214;12.276;2023-09-08T04:57:55;11.50;;;6.80;;
48993;SDS011;34804;49.214;12.276;2023-09-08T05:00:22;12.93;;;6.53;;
48993;SDS011;34804;49.214;12.276;2023-09-08T05:02:48;11.70;;;6.32;;
48993;SDS011;34804;49.214;12.276;2023-09-08T05:05:15;12.70;;;6.28;;
48993;SDS011;34804;49.214;12.276;2023-09-08T05:07:42;12.85;;;5.68;;
48993;SDS011;34804;49.214;12.276;2023-09-08T05:10:09;9.32;;;5.43;;
48993;SDS011;34804;49.214;12.276;2023-09-08T05:12:36;10.07;;;4.90;;
48993;SDS011;34804;49.214;12.276;2023-09-08T05:15:03;12.13;;;5.38;;
48993;SDS011;34804;49.214;12.276;2023-09-08T05:17:36;11.40;;;5.60;;
48993;SDS011;34804;49.214;12.276;2023-09-08T05:20:03;9.80;;;6.00;;
48993;SDS011;34804;49.214;12.276;2023-09-08T05:22:31;11.43;;;5.70;;
48993;SDS011;34804;49.214;12.276;2023-09-08T05:24:58;10.68;;;6.20;;
48993;SDS011;34804;49.214;12.276;2023-09-08T05:27:25;9.02;;;6.05;;
48993;SDS011;34804;49.214;12.276;2023-09-08T05:29:52;9.13;;;6.00;;
48993;SDS011;34804;49.214;12.276;2023-09-08T05:32:19;12.90;;;6.35;;
48993;SDS011;34804;49.214;12.276;2023-09-08T05:34:46;11.25;;;6.65;;
48993;SDS011;34804;49.214;12.276;2023-09-08T05:37:12;12.95;;;6.18;;
48993;SDS011;34804;49.214;12.276;2023-09-08T05:39:39;12.55;;;6.60;;
48993;SDS011;34804;49.214;12.276;2023-09-08T05:42:07;11.90;;;7.35;;
48993;SDS011;34804;49.214;12.276;2023-09-08T05:44:34;10.57;;;6.55;;
48993;SDS011;34804;49.214;12.276;2023-09-08T05:47:01;9.88;;;6.50;;
48993;SDS011;34804;49.214;12.276;2023-09-08T05:49:29;9.68;;;5.95;;
48993;SDS011;34804;49.214;12.276;2023-09-08T05:51:56;12.55;;;7.03;;
48993;SDS011;34804;49.214;12.276;2023-09-08T05:54:23;11.18;;;6.75;;
48993;SDS011;34804;49.214;12.276;2023-09-08T05:56:49;13.95;;;6.90;;
48993;SDS011;34804;49.214;12.276;2023-09-08T05:59:16;13.70;;;7.50;;
48993;SDS011;34804;49.214;12.276;2023-09-08T06:01:43;14.75;;;7.18;;
48993;SDS011;34804;49.214;12.276;2023-09-08T06:04:10;12.35;;;7.15;;
48993;SDS011;34804;49.214;12.276;2023-09-08T06:06:37;13.73;;;7.32;;
48993;SDS011;34804;49.214;12.276;2023-09-08T06:09:04;15.13;;;7.60;;
48993;SDS011;34804;49.214;12.276;2023-09-08T06:11:34;15.48;;;7.05;;
48993;SDS011;34804;49.214;12.276;2023-09-08T06:14:00;13.27;;;7.32;;
48993;SDS011;34804;49.214;12.276;2023-09-08T06:16:27;12.45;;;8.00;;
48993;SDS011;34804;49.214;12.276;2023-09-08T06:18:54;14.98;;;7.15;;
48993;SDS011;34804;49.214;12.276;2023-09-08T06:21:21;10.13;;;7.07;;
48993;SDS011;34804;49.214;12.276;2023-09-08T06:23:48;15.25;;;8.30;;
48993;SDS011;34804;49.214;12.276;2023-09-08T06:26:15;11.82;;;7.78;;
48993;SDS011;34804;49.214;12.276;2023-09-08T06:28:42;15.73;;;8.05;;
48993;SDS011;34804;49.214;12.276;2023-09-08T06:31:10;15.05;;;9.30;;
48993;SDS011;34804;49.214;12.276;2023-09-08T06:33:37;14.13;;;9.52;;
48993;SDS011;34804;49.214;12.276;2023-09-08T06:36:04;15.23;;;9.05;;
48993;SDS011;34804;49.214;12.276;2023-09-08T06:38:31;17.90;;;8.68;;
48993;SDS011;34804;49.214;12.276;2023-09-08T06:40:58;12.52;;;8.68;;
48993;SDS011;34804;49.214;12.276;2023-09-08T06:43:27;16.17;;;8.38;;
48993;SDS011;34804;49.214;12.276;2023-09-08T06:45:54;12.23;;;8.68;;
48993;SDS011;34804;49.214;12.276;2023-09-08T06:48:21;15.82;;;8.27;;
48993;SDS011;34804;49.214;12.276;2023-09-08T06:50:48;11.57;;;8.00;;
48993;SDS011;34804;49.214;12.276;2023-09-08T06:53:14;15.88;;;9.27;;
48993;SDS011;34804;49.214;12.276;2023-09-08T06:55:41;15.38;;;8.32;;
48993;SDS011;34804;49.214;12.276;2023-09-08T06:58:11;15.18;;;9.13;;
48993;SDS011;34804;49.214;12.276;2023-09-08T07:00:38;11.75;;;7.78;;
48993;SDS011;34804;49.214;12.276;2023-09-08T07:03:06;14.75;;;7.97;;
48993;SDS011;34804;49.214;12.276;2023-09-08T07:05:34;13.32;;;7.88;;
48993;SDS011;34804;49.214;12.276;2023-09-08T07:08:02;12.23;;;7.30;;
48993;SDS011;34804;49.214;12.276;2023-09-08T07:10:28;12.57;;;7.75;;
48993;SDS011;34804;49.214;12.276;2023-09-08T07:12:55;11.38;;;6.60;;
48993;SDS011;34804;49.214;12.276;2023-09-08T07:15:22;11.77;;;7.25;;
48993;SDS011;34804;49.214;12.276;2023-09-08T07:17:49;14.50;;;7.07;;
48993;SDS011;34804;49.214;12.276;2023-09-08T07:20:16;9.60;;;6.70;;
48993;SDS011;34804;49.214;12.276;2023-09-08T07:22:44;10.38;;;6.53;;
48993;SDS011;34804;49.214;12.276;2023-09-08T07:25:11;9.90;;;6.07;;
48993;SDS011;34804;49.214;12.276;2023-09-08T07:27:37;8.90;;;6.20;;
48993;SDS011;34804;49.214;12.276;2023-09-08T07:30:05;10.27;;;5.72;;
48993;SDS011;34804;49.214;12.276;2023-09-08T07:32:32;7.47;;;5.10;;
48993;SDS011;34804;49.214;12.276;2023-09-08T07:34:59;7.60;;;5.20;;
48993;SDS011;34804;49.214;12.276;2023-09-08T07:37:26;11.18;;;5.57;;
48993;SDS011;34804;49.214;12.276;2023-09-08T07:39:53;8.60;;;5.43;;
48993;SDS011;34804;49.214;12.276;2023-09-08T07:42:23;9.02;;;5.40;;
48993;SDS011;34804;49.214;12.276;2023-09-08T07:44:51;9.93;;;6.13;;
48993;SDS011;34804;49.214;12.276;2023-09-08T07:47:18;7.95;;;5.30;;
48993;SDS011;34804;49.214;12.276;2023-09-08T07:49:46;8.23;;;5.15;;
48993;SDS011;34804;49.214;12.276;2023-09-08T07:52:14;7.97;;;4.53;;
48993;SDS011;34804;49.214;12.276;2023-09-08T07:54:41;8.93;;;5.10;;
48993;SDS011;34804;49.214;12.276;2023-09-08T07:57:07;9.73;;;5.30;;
48993;SDS011;34804;49.214;12.276;2023-09-08T07:59:34;9.50;;;5.13;;
48993;SDS011;34804;49.214;12.276;2023-09-08T08:02:03;8.32;;;4.90;;
48993;SDS011;34804;49.214;12.276;2023-09-08T08:04:30;7.72;;;4.70;;
48993;SDS011;34804;49.214;12.276;2023-09-08T08:06:57;7.50;;;4.88;;
48993;SDS011;34804;49.214;12.276;2023-09-08T08:09:24;9.40;;;4.93;;
48993;SDS011;34804;49.214;12.276;2023-09-08T08:11:51;10.18;;;5.82;;
48993;SDS011;34804;49.214;12.276;2023-09-08T08:14:18;14.43;;;5.43;;
48993;SDS011;34804;49.214;12.276;2023-09-08T08:16:45;11.27;;;4.68;;
48993;SDS011;34804;49.214;12.276;2023-09-08T08:19:12;8.73;;;4.22;;
48993;SDS011;34804;49.214;12.276;2023-09-08T08:21:38;6.72;;;4.32;;
48993;SDS011;34804;49.214;12.276;2023-09-08T08:24:08;6.75;;;4.53;;
48993;SDS011;34804;49.214;12.276;2023-09-08T08:26:35;9.45;;;4.63;;
48993;SDS011;34804;49.214;12.276;2023-09-08T08:29:02;8.18;;;4.95;;
48993;SDS011;34804;49.214;12.276;2023-09-08T08:31:29;7.05;;;4.45;;
48993;SDS011;34804;49.214;12.276;2023-09-08T08:33:56;8.35;;;4.18;;
48993;SDS011;34804;49.214;12.276;2023-09-08T08:36:23;6.70;;;4.18;;
48993;SDS011;34804;49.214;12.276;2023-09-08T08:38:50;10.48;;;4.63;;
48993;SDS011;34804;49.214;12.276;2023-09-08T08:41:17;7.72;;;4.22;;
48993;SDS011;34804;49.214;12.276;2023-09-08T08:43:46;8.07;;;4.75;;
48993;SDS011;34804;49.214;12.276;2023-09-08T08:46:14;12.00;;;4.88;;
48993;SDS011;34804;49.214;12.276;2023-09-08T08:48:43;8.73;;;4.57;;
48993;SDS011;34804;49.214;12.276;2023-09-08T08:51:11;6.75;;;4.40;;
48993;SDS011;34804;49.214;12.276;2023-09-08T08:53:39;7.35;;;4.50;;
48993;SDS011;34804;49.214;12.276;2023-09-08T08:56:07;10.98;;;4.70;;
48993;SDS011;34804;49.214;12.276;2023-09-08T08:58:36;10.25;;;4.60;;
48993;SDS011;34804;49.214;12.276;2023-09-08T09:01:06;7.75;;;4.30;;
48993;SDS011;34804;49.214;12.276;2023-09-08T09:03:33;7.05;;;4.25;;
48993;SDS011;34804;49.214;12.276;2023-09-08T09:06:04;6.47;;;4.35;;
48993;SDS011;34804;49.214;12.276;2023-09-08T09:08:31;8.00;;;4.07;;
48993;SDS011;34804;49.214;12.276;2023-09-08T09:10:58;7.40;;;4.57;;
48993;SDS011;34804;49.214;12.276;2023-09-08T09:13:25;6.47;;;4.05;;
48993;SDS011;34804;49.214;12.276;2023-09-08T09:15:53;7.15;;;4.38;;
48993;SDS011;34804;49.214;12.276;2023-09-08T09:18:30;7.70;;;4.40;;
48993;SDS011;34804;49.214;12.276;2023-09-08T09:21:01;8.05;;;4.32;;
48993;SDS011;34804;49.214;12.276;2023-09-08T09:23:29;8.90;;;4.53;;
48993;SDS011;34804;49.214;12.276;2023-09-08T09:25:58;9.05;;;4.72;;
48993;SDS011;34804;49.214;12.276;2023-09-08T09:28:28;7.38;;;4.53;;
48993;SDS011;34804;49.214;12.276;2023-09-08T09:30:56;14.18;;;5.22;;
48993;SDS011;34804;49.214;12.276;2023-09-08T09:33:23;8.65;;;4.43;;
48993;SDS011;34804;49.214;12.276;2023-09-08T09:38:18;8.10;;;4.45;;
48993;SDS011;34804;49.214;12.276;2023-09-08T09:40:47;7.32;;;4.70;;
48993;SDS011;34804;49.214;12.276;2023-09-08T09:43:16;10.95;;;4.45;;
48993;SDS011;34804;49.214;12.276;2023-09-08T09:45:43;7.43;;;4.43;;
48993;SDS011;34804;49.214;12.276;2023-09-08T09:48:11;7.40;;;4.05;;
48993;SDS011;34804;49.214;12.276;2023-09-08T09:50:46;11.13;;;4.63;;
48993;SDS011;34804;49.214;12.276;2023-09-08T09:53:14;7.38;;;4.43;;
48993;SDS011;34804;49.214;12.276;2023-09-08T09:55:42;8.32;;;4.80;;
48993;SDS011;34804;49.214;12.276;2023-09-08T09:58:10;6.35;;;4.20;;
48993;SDS011;34804;49.214;12.276;2023-09-08T10:00:38;10.52;;;5.03;;
48993;SDS011;34804;49.214;12.276;2023-09-08T10:03:13;7.95;;;4.80;;
48993;SDS011;34804;49.214;12.276;2023-09-08T10:05:41;6.55;;;4.20;;
48993;SDS011;34804;49.214;12.276;2023-09-08T10:08:07;6.50;;;4.40;;
48993;SDS011;34804;49.214;12.276;2023-09-08T10:10:34;9.23;;;4.55;;
48993;SDS011;34804;49.214;12.276;2023-09-08T10:13:06;7.70;;;3.75;;
48993;SDS011;34804;49.214;12.276;2023-09-08T10:15:34;6.60;;;4.05;;
48993;SDS011;34804;49.214;12.276;2023-09-08T10:18:03;8.73;;;3.95;;
48993;SDS011;34804;49.214;12.276;2023-09-08T10:20:32;7.25;;;4.28;;
48993;SDS011;34804;49.214;12.276;2023-09-08T10:23:12;6.18;;;4.13;;
48993;SDS011;34804;49.214;12.276;2023-09-08T10:25:48;9.48;;;4.10;;
48993;SDS011;34804;49.214;12.276;2023-09-08T10:28:21;10.40;;;4.25;;
48993;SDS011;34804;49.214;12.276;2023-09-08T10:30:49;8.55;;;4.40;;
48993;SDS011;34804;49.214;12.276;2023-09-08T10:33:18;7.15;;;4.47;;
48993;SDS011;34804;49.214;12.276;2023-09-08T10:35:49;6.28;;;3.95;;
48993;SDS011;34804;49.214;12.276;2023-09-08T10:38:27;6.82;;;3.83;;
48993;SDS011;34804;49.214;12.276;2023-09-08T10:43:56;9.90;;;4.50;;
48993;SDS011;34804;49.214;12.276;2023-09-08T10:46:28;7.65;;;4.30;;
48993;SDS011;34804;49.214;12.276;2023-09-08T10:49:06;6.45;;;4.00;;
48993;SDS011;34804;49.214;12.276;2023-09-08T10:51:34;7.45;;;4.35;;
48993;SDS011;34804;49.214;12.276;2023-09-08T10:54:01;7.65;;;4.65;;
48993;SDS011;34804;49.214;12.276;2023-09-08T10:56:46;7.20;;;4.15;;
48993;SDS011;34804;49.214;12.276;2023-09-08T10:59:18;7.68;;;3.80;;
48993;SDS011;34804;49.214;12.276;2023-09-08T11:01:46;9.93;;;4.10;;
48993;SDS011;34804;49.214;12.276;2023-09-08T11:04:14;5.45;;;3.22;;
48993;SDS011;34804;49.214;12.276;2023-09-08T11:06:45;6.07;;;3.95;;
48993;SDS011;34804;49.214;12.276;2023-09-08T11:09:12;6.50;;;3.72;;
48993;SDS011;34804;49.214;12.276;2023-09-08T11:11:39;7.72;;;3.75;;
48993;SDS011;34804;49.214;12.276;2023-09-08T11:14:06;6.63;;;3.92;;
48993;SDS011;34804;49.214;12.276;2023-09-08T11:16:33;6.40;;;3.60;;
48993;SDS011;34804;49.214;12.276;2023-09-08T11:19:01;6.95;;;3.60;;
48993;SDS011;34804;49.214;12.276;2023-09-08T11:21:31;5.38;;;3.08;;
48993;SDS011;34804;49.214;12.276;2023-09-08T11:24:02;5.65;;;3.60;;
48993;SDS011;34804;49.214;12.276;2023-09-08T11:26:34;6.72;;;3.40;;
48993;SDS011;34804;49.214;12.276;2023-09-08T11:29:01;7.03;;;3.60;;
48993;SDS011;34804;49.214;12.276;2023-09-08T11:31:29;7.68;;;3.53;;
48993;SDS011;34804;49.214;12.276;2023-09-08T11:33:56;6.10;;;3.58;;
48993;SDS011;34804;49.214;12.276;2023-09-08T11:36:25;7.00;;;3.80;;
48993;SDS011;34804;49.214;12.276;2023-09-08T11:38:52;5.47;;;3.53;;
48993;SDS011;34804;49.214;12.276;2023-09-08T11:41:19;6.00;;;3.40;;
48993;SDS011;34804;49.214;12.276;2023-09-08T11:43:50;6.82;;;3.67;;
48993;SDS011;34804;49.214;12.276;2023-09-08T11:46:18;6.03;;;3.05;;
48993;SDS011;34804;49.214;12.276;2023-09-08T11:48:45;8.95;;;3.53;;
48993;SDS011;34804;49.214;12.276;2023-09-08T11:51:13;7.40;;;3.55;;
48993;SDS011;34804;49.214;12.276;2023-09-08T11:53:39;5.75;;;3.60;;
48993;SDS011;34804;49.214;12.276;2023-09-08T11:56:08;6.90;;;3.60;;
48993;SDS011;34804;49.214;12.276;2023-09-08T11:58:35;5.28;;;3.33;;
48993;SDS011;34804;49.214;12.276;2023-09-08T12:01:03;5.57;;;3.22;;
48993;SDS011;34804;49.214;12.276;2023-09-08T12:03:31;6.82;;;3.60;;
48993;SDS011;34804;49.214;12.276;2023-09-08T12:05:58;6.60;;;3.40;;
48993;SDS011;34804;49.214;12.276;2023-09-08T12:08:28;5.65;;;3.35;;
48993;SDS011;34804;49.214;12.276;2023-09-08T12:10:55;5.25;;;3.25;;
48993;SDS011;34804;49.214;12.276;2023-09-08T12:13:24;5.93;;;3.20;;
48993;SDS011;34804;49.214;12.276;2023-09-08T12:15:58;6.40;;;3.20;;
48993;SDS011;34804;49.214;12.276;2023-09-08T12:18:38;6.07;;;3.47;;
48993;SDS011;34804;49.214;12.276;2023-09-08T12:21:07;6.90;;;3.38;;
48993;SDS011;34804;49.214;12.276;2023-09-08T12:23:34;6.28;;;3.40;;
48993;SDS011;34804;49.214;12.276;2023-09-08T12:26:12;5.57;;;3.35;;
48993;SDS011;34804;49.214;12.276;2023-09-08T12:28:40;7.13;;;3.40;;
48993;SDS011;34804;49.214;12.276;2023-09-08T12:31:10;6.10;;;3.45;;
48993;SDS011;34804;49.214;12.276;2023-09-08T12:33:39;6.80;;;3.70;;
48993;SDS011;34804;49.214;12.276;2023-09-08T12:36:17;5.75;;;3.22;;
48993;SDS011;34804;49.214;12.276;2023-09-08T12:38:50;7.13;;;3.47;;
48993;SDS011;34804;49.214;12.276;2023-09-08T12:41:19;5.38;;;3.22;;
48993;SDS011;34804;49.214;12.276;2023-09-08T12:43:46;6.13;;;3.38;;
48993;SDS011;34804;49.214;12.276;2023-09-08T12:46:16;6.80;;;3.00;;
48993;SDS011;34804;49.214;12.276;2023-09-08T12:48:44;7.28;;;3.50;;
48993;SDS011;34804;49.214;12.276;2023-09-08T12:51:12;4.53;;;2.72;;
48993;SDS011;34804;49.214;12.276;2023-09-08T12:53:42;6.53;;;3.15;;
48993;SDS011;34804;49.214;12.276;2023-09-08T12:56:09;4.97;;;3.15;;
48993;SDS011;34804;49.214;12.276;2023-09-08T12:58:35;4.85;;;3.05;;
48993;SDS011;34804;49.214;12.276;2023-09-08T13:01:03;5.75;;;2.90;;
48993;SDS011;34804;49.214;12.276;2023-09-08T13:03:32;8.43;;;3.28;;
48993;SDS011;34804;49.214;12.276;2023-09-08T13:05:59;5.82;;;3.30;;
48993;SDS011;34804;49.214;12.276;2023-09-08T13:08:26;6.00;;;3.17;;
48993;SDS011;34804;49.214;12.276;2023-09-08T13:10:53;6.60;;;3.13;;
48993;SDS011;34804;49.214;12.276;2023-09-08T13:13:20;5.70;;;3.17;;
48993;SDS011;34804;49.214;12.276;2023-09-08T13:15:47;6.18;;;3.30;;
48993;SDS011;34804;49.214;12.276;2023-09-08T13:18:15;5.63;;;3.03;;
48993;SDS011;34804;49.214;12.276;2023-09-08T13:20:42;7.28;;;3.40;;
48993;SDS011;34804;49.214;12.276;2023-09-08T13:23:09;7.88;;;3.17;;
48993;SDS011;34804;49.214;12.276;2023-09-08T13:25:36;4.82;;;2.97;;
48993;SDS011;34804;49.214;12.276;2023-09-08T13:28:03;4.80;;;2.78;;
48993;SDS011;34804;49.214;12.276;2023-09-08T13:30:30;5.97;;;3.30;;
48993;SDS011;34804;49.214;12.276;2023-09-08T13:32:57;6.55;;;3.25;;
48993;SDS011;34804;49.214;12.276;2023-09-08T13:35:23;5.82;;;2.78;;
48993;SDS011;34804;49.214;12.276;2023-09-08T13:37:50;6.85;;;3.20;;
48993;SDS011;34804;49.214;12.276;2023-09-08T13:40:17;4.88;;;2.97;;
48993;SDS011;34804;49.214;12.276;2023-09-08T13:42:44;5.50;;;3.10;;
48993;SDS011;34804;49.214;12.276;2023-09-08T13:45:11;5.45;;;3.40;;
48993;SDS011;34804;49.214;12.276;2023-09-08T13:47:38;5.45;;;3.20;;
48993;SDS011;34804;49.214;12.276;2023-09-08T13:50:05;5.93;;;3.15;;
48993;SDS011;34804;49.214;12.276;2023-09-08T13:52:35;4.80;;;2.92;;
48993;SDS011;34804;49.214;12.276;2023-09-08T13:55:04;6.97;;;3.25;;
48993;SDS011;34804;49.214;12.276;2023-09-08T13:57:35;5.15;;;3.08;;
48993;SDS011;34804;49.214;12.276;2023-09-08T14:00:06;6.47;;;3.03;;
48993;SDS011;34804;49.214;12.276;2023-09-08T14:02:41;6.22;;;2.85;;
48993;SDS011;34804;49.214;12.276;2023-09-08T14:05:15;5.57;;;3.30;;
48993;SDS011;34804;49.214;12.276;2023-09-08T14:07:45;5.68;;;3.28;;
48993;SDS011;34804;49.214;12.276;2023-09-08T14:10:22;7.47;;;3.20;;
48993;SDS011;34804;49.214;12.276;2023-09-08T14:12:52;4.93;;;3.17;;
48993;SDS011;34804;49.214;12.276;2023-09-08T14:15:19;5.82;;;3.08;;
48993;SDS011;34804;49.214;12.276;2023-09-08T14:17:46;5.47;;;3.00;;
48993;SDS011;34804;49.214;12.276;2023-09-08T14:20:13;4.88;;;2.97;;
48993;SDS011;34804;49.214;12.276;2023-09-08T14:22:40;5.10;;;3.05;;
48993;SDS011;34804;49.214;12.276;2023-09-08T14:25:07;6.13;;;2.80;;
48993;SDS011;34804;49.214;12.276;2023-09-08T14:27:34;5.53;;;3.25;;
48993;SDS011;34804;49.214;12.276;2023-09-08T14:30:04;5.00;;;2.95;;
48993;SDS011;34804;49.214;12.276;2023-09-08T14:32:32;4.85;;;3.00;;
48993;SDS011;34804;49.214;12.276;2023-09-08T14:34:59;4.93;;;3.13;;
48993;SDS011;34804;49.214;12.276;2023-09-08T14:37:25;5.25;;;2.92;;
48993;SDS011;34804;49.214;12.276;2023-09-08T14:39:52;5.32;;;3.40;;
48993;SDS011;34804;49.214;12.276;2023-09-08T14:42:19;6.30;;;3.40;;
48993;SDS011;34804;49.214;12.276;2023-09-08T14:44:46;5.65;;;3.20;;